createdAt,value
2018-09-26T00:00:14.442Z,10.50
2018-09-26T00:02:46.217Z,10.40
2018-09-26T00:05:15.538Z,10.40
2018-09-26T00:07:45.084Z,10.40
2018-09-26T00:10:13.966Z,10.40
2018-09-26T00:12:42.558Z,10.40
2018-09-26T00:15:11.047Z,10.40
2018-09-26T00:17:39.897Z,10.40
2018-09-26T00:20:09.687Z,10.40
2018-09-26T00:22:38.117Z,10.30
2018-09-26T00:25:06.589Z,10.40
2018-09-26T00:27:34.958Z,10.40
2018-09-26T00:30:04.114Z,10.30
2018-09-26T00:32:32.552Z,10.40
2018-09-26T00:35:00.963Z,10.40
2018-09-26T00:37:29.523Z,10.40
2018-09-26T00:39:57.865Z,10.40
2018-09-26T00:42:26.755Z,10.40
2018-09-26T00:44:55.680Z,10.40
2018-09-26T00:47:24.040Z,10.40
2018-09-26T00:49:53.052Z,10.50
2018-09-26T00:52:21.443Z,10.50
2018-09-26T00:54:50.210Z,10.60
2018-09-26T00:57:18.576Z,10.60
2018-09-26T00:59:47.104Z,10.60
2018-09-26T01:02:15.813Z,10.60
2018-09-26T01:04:45.482Z,10.60
2018-09-26T01:07:14.957Z,10.60
2018-09-26T01:09:43.293Z,10.60
2018-09-26T01:12:13.565Z,10.60
2018-09-26T01:14:42.226Z,10.60
2018-09-26T01:17:11.631Z,10.60
2018-09-26T01:19:42.153Z,10.60
2018-09-26T01:22:11.217Z,10.50
2018-09-26T01:24:40.985Z,10.50
2018-09-26T01:27:09.447Z,10.50
2018-09-26T01:29:37.820Z,10.50
2018-09-26T01:32:06.164Z,10.50
2018-09-26T01:34:35.658Z,10.40
2018-09-26T01:37:05.438Z,10.50
2018-09-26T01:42:12.371Z,10.40
2018-09-26T01:44:41.652Z,10.40
2018-09-26T01:47:10.025Z,10.40
2018-09-26T01:49:39.186Z,10.40
2018-09-26T01:52:07.571Z,10.40
2018-09-26T01:54:36.913Z,10.30
2018-09-26T01:57:05.269Z,10.30
2018-09-26T01:59:33.925Z,10.30
2018-09-26T02:02:02.570Z,10.30
2018-09-26T02:04:31.230Z,10.20
2018-09-26T02:06:59.650Z,10.20
2018-09-26T02:09:28.079Z,10.30
2018-09-26T02:11:56.598Z,10.20
2018-09-26T02:14:24.929Z,10.20
2018-09-26T02:16:53.949Z,10.20
2018-09-26T02:19:22.352Z,10.20
2018-09-26T02:21:51.671Z,10.20
2018-09-26T02:24:20.109Z,10.20
2018-09-26T02:26:50.608Z,10.20
2018-09-26T02:29:19.766Z,10.20
2018-09-26T02:31:48.380Z,10.20
2018-09-26T02:34:16.883Z,10.20
2018-09-26T02:36:45.361Z,10.20
2018-09-26T02:39:13.791Z,10.20
2018-09-26T02:41:44.595Z,10.20
2018-09-26T02:44:13.349Z,10.20
2018-09-26T02:46:41.822Z,10.30
2018-09-26T02:49:11.402Z,10.30
2018-09-26T02:51:40.707Z,10.30
2018-09-26T02:54:09.036Z,10.30
2018-09-26T02:56:37.564Z,10.20
2018-09-26T02:59:05.927Z,10.30
2018-09-26T03:01:35.810Z,10.20
2018-09-26T03:04:04.233Z,10.20
2018-09-26T03:06:33.915Z,10.20
2018-09-26T03:09:02.573Z,10.20
2018-09-26T03:11:31.210Z,10.20
2018-09-26T03:13:59.922Z,10.30
2018-09-26T03:16:28.673Z,10.30
2018-09-26T03:18:57.082Z,10.20
2018-09-26T03:21:25.702Z,10.30
2018-09-26T03:23:54.440Z,10.30
2018-09-26T03:26:24.980Z,10.30
2018-09-26T03:28:55.740Z,10.30
2018-09-26T03:31:25.528Z,10.40
2018-09-26T03:33:56.903Z,10.40
2018-09-26T03:36:28.112Z,10.40
2018-09-26T03:38:59.949Z,10.40
2018-09-26T03:41:31.429Z,10.50
2018-09-26T03:44:00.920Z,10.50
2018-09-26T03:46:31.004Z,10.60
2018-09-26T03:48:59.971Z,10.60
2018-09-26T03:51:31.183Z,10.60
2018-09-26T03:54:02.189Z,10.60
2018-09-26T03:56:33.080Z,10.60
2018-09-26T03:59:04.290Z,10.60
2018-09-26T04:01:35.317Z,10.70
2018-09-26T04:04:06.021Z,10.70
2018-09-26T04:06:36.941Z,10.70
2018-09-26T04:09:10.251Z,10.70
2018-09-26T04:11:38.665Z,10.70
2018-09-26T04:14:09.871Z,10.70
2018-09-26T04:16:40.971Z,10.80
2018-09-26T04:19:12.275Z,10.80
2018-09-26T04:21:43.362Z,10.80
2018-09-26T04:24:14.343Z,10.80
2018-09-26T04:26:45.644Z,10.80
2018-09-26T04:29:13.962Z,10.80
2018-09-26T04:31:44.997Z,10.80
2018-09-26T04:34:16.131Z,10.80
2018-09-26T04:36:47.059Z,10.80
2018-09-26T04:39:15.746Z,10.80
2018-09-26T04:41:46.824Z,10.80
2018-09-26T04:44:17.795Z,10.80
2018-09-26T04:46:48.731Z,10.80
2018-09-26T04:49:17.173Z,10.80
2018-09-26T04:51:48.215Z,10.70
2018-09-26T04:54:18.529Z,10.70
2018-09-26T04:56:49.592Z,10.70
2018-09-26T04:59:18.557Z,10.70
2018-09-26T05:01:49.523Z,10.70
2018-09-26T05:04:18.058Z,10.70
2018-09-26T05:06:46.456Z,10.70
2018-09-26T05:09:14.756Z,10.60
2018-09-26T05:11:43.341Z,10.60
2018-09-26T05:14:11.777Z,10.60
2018-09-26T05:16:40.173Z,10.60
2018-09-26T05:19:09.077Z,10.60
2018-09-26T05:21:38.027Z,10.60
2018-09-26T05:24:08.424Z,10.60
2018-09-26T05:29:16.151Z,10.70
2018-09-26T05:31:44.462Z,10.70
2018-09-26T05:34:12.793Z,10.70
2018-09-26T05:36:41.179Z,10.70
2018-09-26T05:39:11.214Z,10.70
2018-09-26T05:41:39.573Z,10.80
2018-09-26T05:44:07.974Z,10.80
2018-09-26T05:46:36.324Z,10.80
2018-09-26T05:49:04.709Z,10.80
2018-09-26T05:51:33.118Z,10.90
2018-09-26T05:54:01.501Z,10.90
2018-09-26T05:56:30.145Z,10.90
2018-09-26T05:58:58.528Z,11.00
2018-09-26T06:01:27.537Z,11.00
2018-09-26T06:03:56.401Z,11.00
2018-09-26T06:06:24.696Z,11.10
2018-09-26T06:08:53.098Z,11.10
2018-09-26T06:11:21.579Z,11.20
2018-09-26T06:13:50.111Z,11.20
2018-09-26T06:16:18.424Z,11.20
2018-09-26T06:18:46.764Z,11.20
2018-09-26T06:21:15.060Z,11.20
2018-09-26T06:23:43.367Z,11.20
2018-09-26T06:26:11.808Z,11.30
2018-09-26T06:28:40.238Z,11.20
2018-09-26T06:31:08.540Z,11.20
2018-09-26T06:33:36.907Z,11.30
2018-09-26T06:36:05.321Z,11.30
2018-09-26T06:38:33.653Z,11.30
2018-09-26T06:41:02.079Z,11.40
2018-09-26T06:43:30.615Z,11.40
2018-09-26T06:45:58.972Z,11.40
2018-09-26T06:48:27.320Z,11.40
2018-09-26T06:50:55.669Z,11.40
2018-09-26T06:53:23.977Z,11.40
2018-09-26T06:55:52.324Z,11.40
2018-09-26T06:58:20.639Z,11.50
2018-09-26T07:00:48.980Z,11.40
2018-09-26T07:03:17.529Z,11.50
2018-09-26T07:05:45.927Z,11.50
2018-09-26T07:08:14.325Z,11.50
2018-09-26T07:10:42.653Z,11.50
2018-09-26T07:13:11.180Z,11.60
2018-09-26T07:15:39.765Z,11.70
2018-09-26T07:18:08.678Z,11.60
2018-09-26T07:20:43.632Z,11.60
2018-09-26T07:23:11.951Z,11.70
2018-09-26T07:25:40.338Z,11.70
2018-09-26T07:28:08.656Z,11.70
2018-09-26T07:30:36.974Z,11.80
2018-09-26T07:33:05.376Z,11.80
2018-09-26T07:35:40.494Z,11.90
2018-09-26T07:38:08.891Z,11.90
2018-09-26T07:40:37.184Z,12.00
2018-09-26T07:43:07.140Z,12.00
2018-09-26T07:45:35.758Z,12.10
2018-09-26T07:48:04.047Z,12.10
2018-09-26T07:50:35.185Z,12.10
2018-09-26T07:53:04.232Z,12.20
2018-09-26T07:55:32.552Z,12.20
2018-09-26T07:58:00.900Z,12.30
2018-09-26T08:00:29.382Z,12.40
2018-09-26T08:02:58.325Z,12.40
2018-09-26T08:05:26.958Z,12.40
2018-09-26T08:07:55.268Z,12.40
2018-09-26T08:10:23.564Z,12.50
2018-09-26T08:12:52.489Z,12.60
2018-09-26T08:15:20.764Z,12.60
2018-09-26T08:17:49.124Z,12.70
2018-09-26T08:20:17.982Z,12.80
2018-09-26T08:22:46.321Z,12.90
2018-09-26T08:25:14.608Z,13.00
2018-09-26T08:27:43.109Z,13.00
2018-09-26T08:30:11.584Z,13.10
2018-09-26T08:32:43.379Z,13.10
2018-09-26T08:35:12.030Z,13.20
2018-09-26T08:37:40.316Z,13.20
2018-09-26T08:40:09.708Z,13.30
2018-09-26T08:42:39.566Z,13.30
2018-09-26T08:45:10.248Z,13.40
2018-09-26T08:47:38.865Z,13.50
2018-09-26T08:50:08.278Z,13.50
2018-09-26T08:52:36.568Z,13.60
2018-09-26T08:55:05.202Z,13.70
2018-09-26T08:57:33.517Z,13.70
2018-09-26T09:00:01.848Z,13.80
2018-09-26T09:02:30.221Z,13.90
2018-09-26T09:04:58.573Z,13.90
2018-09-26T09:07:26.896Z,14.00
2018-09-26T09:09:55.189Z,14.00
2018-09-26T09:12:23.563Z,14.10
2018-09-26T09:14:52.147Z,14.10
2018-09-26T09:17:20.242Z,14.20
2018-09-26T09:19:48.521Z,14.30
2018-09-26T09:22:16.950Z,14.30
2018-09-26T09:24:45.327Z,14.40
2018-09-26T09:27:13.894Z,14.50
2018-09-26T09:29:42.123Z,14.60
2018-09-26T09:32:10.488Z,14.70
2018-09-26T09:34:38.743Z,14.80
2018-09-26T09:37:07.051Z,14.80
2018-09-26T09:39:35.437Z,14.90
2018-09-26T09:42:03.720Z,14.90
2018-09-26T09:44:32.109Z,15.00
2018-09-26T09:47:00.413Z,15.10
2018-09-26T09:49:28.716Z,15.10
2018-09-26T09:51:57.009Z,15.20
2018-09-26T09:54:25.328Z,15.20
2018-09-26T09:56:54.653Z,15.30
2018-09-26T09:59:23.007Z,15.40
2018-09-26T10:01:51.312Z,15.40
2018-09-26T10:04:19.653Z,15.40
2018-09-26T10:06:47.969Z,15.50
2018-09-26T10:09:16.288Z,15.50
2018-09-26T10:11:44.644Z,15.50
2018-09-26T10:14:13.075Z,15.60
2018-09-26T10:16:41.494Z,15.60
2018-09-26T10:19:09.814Z,15.60
2018-09-26T10:21:38.302Z,15.70
2018-09-26T10:24:06.645Z,15.70
2018-09-26T10:26:35.603Z,15.80
2018-09-26T10:29:04.038Z,15.70
2018-09-26T10:31:32.422Z,15.70
2018-09-26T10:34:00.785Z,15.80
2018-09-26T10:36:29.577Z,15.90
2018-09-26T10:38:58.000Z,15.90
2018-09-26T10:41:26.970Z,16.00
2018-09-26T10:43:55.619Z,16.00
2018-09-26T10:46:23.953Z,16.00
2018-09-26T10:48:52.377Z,16.00
2018-09-26T10:51:21.062Z,16.00
2018-09-26T10:53:49.752Z,16.00
2018-09-26T10:56:18.227Z,16.10
2018-09-26T10:58:46.950Z,16.10
2018-09-26T11:01:15.841Z,16.20
2018-09-26T11:03:44.769Z,16.20
2018-09-26T11:06:13.139Z,16.30
2018-09-26T11:08:41.523Z,16.30
2018-09-26T11:11:10.006Z,16.40
2018-09-26T11:13:38.320Z,16.40
2018-09-26T11:16:06.858Z,16.40
2018-09-26T11:18:36.242Z,16.50
2018-09-26T11:21:05.691Z,16.50
2018-09-26T11:23:34.772Z,16.60
2018-09-26T11:26:03.117Z,16.60
2018-09-26T11:28:31.625Z,16.70
2018-09-26T11:31:00.279Z,16.70
2018-09-26T11:33:30.031Z,16.70
2018-09-26T11:35:59.074Z,16.80
2018-09-26T11:38:28.286Z,16.80
2018-09-26T11:40:58.916Z,16.90
2018-09-26T11:43:27.256Z,16.90
2018-09-26T11:45:57.087Z,17.00
2018-09-26T11:48:25.444Z,17.00
2018-09-26T11:50:53.749Z,17.00
2018-09-26T11:53:22.098Z,17.10
2018-09-26T11:55:50.490Z,17.10
2018-09-26T11:58:18.879Z,17.20
2018-09-26T12:00:47.190Z,17.20
2018-09-26T12:03:15.509Z,17.20
2018-09-26T12:05:43.888Z,17.30
2018-09-26T12:08:14.368Z,17.30
2018-09-26T12:13:28.530Z,17.40
2018-09-26T12:16:01.070Z,17.40
2018-09-26T12:21:37.173Z,17.40
2018-09-26T12:24:14.281Z,17.40
2018-09-26T12:26:45.101Z,17.50
2018-09-26T12:29:15.283Z,17.50
2018-09-26T12:31:43.745Z,17.60
2018-09-26T12:34:12.842Z,17.60
2018-09-26T12:36:50.025Z,17.60
2018-09-26T12:39:22.880Z,17.60
2018-09-26T12:43:00.690Z,17.70
2018-09-26T12:45:36.208Z,17.70
2018-09-26T12:48:04.537Z,17.80
2018-09-26T12:50:32.784Z,17.80
2018-09-26T12:53:01.136Z,17.90
2018-09-26T12:55:29.626Z,17.90
2018-09-26T12:57:57.924Z,18.00
2018-09-26T13:00:26.287Z,18.00
2018-09-26T13:02:54.540Z,18.00
2018-09-26T13:05:22.874Z,18.00
2018-09-26T13:07:51.194Z,18.10
2018-09-26T13:10:20.894Z,18.10
2018-09-26T13:12:50.288Z,18.20
2018-09-26T13:15:19.101Z,18.30
2018-09-26T13:17:47.505Z,18.30
2018-09-26T13:20:15.870Z,18.30
2018-09-26T13:22:46.875Z,18.30
2018-09-26T13:25:17.988Z,18.40
2018-09-26T13:27:49.114Z,18.40
2018-09-26T13:30:18.828Z,18.50
2018-09-26T13:32:47.278Z,18.50
2018-09-26T13:35:17.701Z,18.50
2018-09-26T13:37:46.305Z,18.50
2018-09-26T13:40:17.095Z,18.60
2018-09-26T13:42:46.863Z,18.60
2018-09-26T13:45:15.409Z,18.60
2018-09-26T13:47:45.699Z,18.60
2018-09-26T13:50:14.302Z,18.60
2018-09-26T13:52:44.905Z,18.60
2018-09-26T13:55:13.264Z,18.60
2018-09-26T13:57:44.232Z,18.60
2018-09-26T14:00:16.414Z,18.70
2018-09-26T14:02:45.587Z,18.70
2018-09-26T14:05:14.224Z,18.70
2018-09-26T14:07:45.824Z,18.70
2018-09-26T14:10:14.276Z,18.70
2018-09-26T14:12:42.973Z,18.70
2018-09-26T14:15:12.591Z,18.70
2018-09-26T14:17:41.617Z,18.70
2018-09-26T14:20:11.861Z,18.70
2018-09-26T14:22:40.243Z,18.70
2018-09-26T14:25:10.034Z,18.70
2018-09-26T14:27:41.327Z,18.70
2018-09-26T14:30:11.928Z,18.70
2018-09-26T14:32:42.816Z,18.70
2018-09-26T14:35:11.806Z,18.70
2018-09-26T14:37:42.654Z,18.70
2018-09-26T14:40:13.625Z,18.60
2018-09-26T14:42:43.326Z,18.60
2018-09-26T14:45:11.700Z,18.70
2018-09-26T14:47:40.480Z,18.60
2018-09-26T14:50:11.688Z,18.60
2018-09-26T14:52:42.143Z,18.60
2018-09-26T14:55:10.487Z,18.60
2018-09-26T14:57:42.011Z,18.50
2018-09-26T15:00:13.131Z,18.50
2018-09-26T15:02:44.846Z,18.50
2018-09-26T15:05:13.189Z,18.50
2018-09-26T15:07:44.138Z,18.50
2018-09-26T15:10:15.148Z,18.40
2018-09-26T15:12:46.205Z,18.40
2018-09-26T15:15:16.926Z,18.40
2018-09-26T15:17:48.596Z,18.30
2018-09-26T15:20:20.421Z,18.20
2018-09-26T15:22:48.759Z,18.20
2018-09-26T15:25:19.744Z,18.20
2018-09-26T15:27:50.639Z,18.30
2018-09-26T15:30:21.898Z,18.20
2018-09-26T15:32:53.098Z,18.20
2018-09-26T15:35:24.239Z,18.20
2018-09-26T15:37:55.461Z,18.20
2018-09-26T15:40:26.798Z,18.20
2018-09-26T15:42:58.149Z,18.10
2018-09-26T15:45:29.336Z,18.10
2018-09-26T15:47:57.740Z,18.10
2018-09-26T15:50:26.344Z,18.10
2018-09-26T15:52:57.373Z,18.10
2018-09-26T15:55:25.799Z,18.00
2018-09-26T15:57:54.112Z,18.00
2018-09-26T16:00:22.456Z,17.90
2018-09-26T16:02:50.897Z,17.90
2018-09-26T16:08:53.202Z,17.90
2018-09-26T16:16:32.267Z,17.70
2018-09-26T16:19:01.021Z,17.70
2018-09-26T16:21:29.677Z,17.60
2018-09-26T16:23:58.177Z,17.60
2018-09-26T16:26:26.608Z,17.50
2018-09-26T16:28:54.851Z,17.50
2018-09-26T16:31:23.221Z,17.50
2018-09-26T16:33:51.513Z,17.40
2018-09-26T16:36:19.911Z,17.30
2018-09-26T16:38:48.746Z,17.30
2018-09-26T16:41:17.163Z,17.30
2018-09-26T16:43:45.792Z,17.20
2018-09-26T16:46:14.404Z,17.20
2018-09-26T16:48:43.192Z,17.20
2018-09-26T16:51:11.776Z,17.10
2018-09-26T16:53:40.398Z,17.10
2018-09-26T16:56:08.768Z,17.00
2018-09-26T16:58:38.759Z,17.00
2018-09-26T17:01:08.601Z,17.00
2018-09-26T17:03:37.073Z,17.00
2018-09-26T17:06:05.616Z,17.00
2018-09-26T17:08:33.981Z,16.90
2018-09-26T17:11:16.170Z,16.90
2018-09-26T17:13:44.512Z,16.90
2018-09-26T17:16:13.080Z,16.80
2018-09-26T17:18:41.345Z,16.80
2018-09-26T17:21:09.705Z,16.80
2018-09-26T17:23:37.999Z,16.80
2018-09-26T17:26:06.390Z,16.70
2018-09-26T17:28:34.754Z,16.70
2018-09-26T17:31:03.312Z,16.60
2018-09-26T17:33:31.604Z,16.60
2018-09-26T17:36:00.028Z,16.60
2018-09-26T17:38:28.441Z,16.50
2018-09-26T17:40:56.740Z,16.50
2018-09-26T17:43:25.758Z,16.40
2018-09-26T17:45:54.168Z,16.40
2018-09-26T17:48:22.511Z,16.40
2018-09-26T17:50:51.838Z,16.30
2018-09-26T17:53:20.170Z,16.30
2018-09-26T17:55:48.648Z,16.20
2018-09-26T17:58:17.000Z,16.20
2018-09-26T18:00:45.248Z,16.20
2018-09-26T18:03:13.696Z,16.20
2018-09-26T18:05:42.070Z,16.10
2018-09-26T18:08:10.377Z,16.10
2018-09-26T18:10:38.670Z,16.10
2018-09-26T18:13:10.131Z,16.00
2018-09-26T18:15:39.069Z,16.00
2018-09-26T18:18:07.508Z,16.00
2018-09-26T18:20:35.893Z,15.90
2018-09-26T18:23:04.381Z,15.90
2018-09-26T18:25:33.212Z,15.90
2018-09-26T18:28:01.960Z,15.90
2018-09-26T18:30:34.091Z,15.80
2018-09-26T18:33:03.010Z,15.80
2018-09-26T18:35:31.861Z,15.80
2018-09-26T18:38:00.236Z,15.70
2018-09-26T18:40:28.611Z,15.70
2018-09-26T18:42:56.928Z,15.70
2018-09-26T18:45:25.419Z,15.70
2018-09-26T18:47:53.829Z,15.70
2018-09-26T18:50:22.185Z,15.60
2018-09-26T18:52:50.497Z,15.60
2018-09-26T18:55:18.893Z,15.60
2018-09-26T18:57:47.284Z,15.60
2018-09-26T19:00:15.606Z,15.60
2018-09-26T19:02:43.969Z,15.60
2018-09-26T19:05:12.410Z,15.50
2018-09-26T19:07:40.729Z,15.50
2018-09-26T19:10:09.097Z,15.50
2018-09-26T19:12:37.466Z,15.50
2018-09-26T19:15:06.094Z,15.40
2018-09-26T19:17:34.434Z,15.40
2018-09-26T19:20:02.796Z,15.40
2018-09-26T19:22:31.189Z,15.40
2018-09-26T19:24:59.501Z,15.40
2018-09-26T19:27:27.873Z,15.30
2018-09-26T19:29:56.356Z,15.30
2018-09-26T19:32:24.803Z,15.30
2018-09-26T19:34:53.145Z,15.30
2018-09-26T19:37:21.571Z,15.30
2018-09-26T19:39:50.091Z,15.20
2018-09-26T19:42:18.577Z,15.20
2018-09-26T19:44:47.003Z,15.30
2018-09-26T19:47:15.332Z,15.20
2018-09-26T19:49:43.901Z,15.20
2018-09-26T19:52:12.656Z,15.20
2018-09-26T19:54:41.136Z,15.20
2018-09-26T19:57:09.509Z,15.20
2018-09-26T19:59:37.953Z,15.10
2018-09-26T20:02:06.408Z,15.20
2018-09-26T20:04:34.954Z,15.20
2018-09-26T20:07:03.351Z,15.20
2018-09-26T20:09:31.750Z,15.20
2018-09-26T20:12:00.105Z,15.20
2018-09-26T20:14:28.468Z,15.20
2018-09-26T20:16:56.914Z,15.20
2018-09-26T20:19:25.401Z,15.20
2018-09-26T20:21:53.862Z,15.20
2018-09-26T20:24:22.109Z,15.20
2018-09-26T20:26:50.602Z,15.20
2018-09-26T20:29:18.815Z,15.20
2018-09-26T20:31:47.808Z,15.10
2018-09-26T20:34:16.286Z,15.20
2018-09-26T20:36:44.685Z,15.20
2018-09-26T20:39:13.062Z,15.10
2018-09-26T20:41:41.956Z,15.20
2018-09-26T20:44:10.608Z,15.10
2018-09-26T20:46:38.985Z,15.10
2018-09-26T20:49:07.565Z,15.10
2018-09-26T20:51:36.261Z,15.10
2018-09-26T20:54:05.212Z,15.10
2018-09-26T20:56:34.353Z,15.10
2018-09-26T20:59:02.631Z,15.10
2018-09-26T21:01:30.988Z,15.10
2018-09-26T21:03:59.347Z,15.10
2018-09-26T21:06:27.833Z,15.00
2018-09-26T21:08:56.227Z,15.00
2018-09-26T21:11:24.628Z,15.00
2018-09-26T21:13:52.919Z,15.00
2018-09-26T21:16:21.362Z,15.00
2018-09-26T21:18:49.691Z,14.90
2018-09-26T21:21:17.973Z,14.90
2018-09-26T21:23:48.561Z,14.90
2018-09-26T21:26:18.471Z,14.90
2018-09-26T21:28:54.099Z,14.90
2018-09-26T21:31:23.899Z,15.00
2018-09-26T21:33:52.318Z,14.90
2018-09-26T21:36:20.800Z,14.90
2018-09-26T21:38:49.136Z,14.90
2018-09-26T21:41:17.415Z,14.90
2018-09-26T21:43:45.773Z,14.90
2018-09-26T21:46:14.906Z,14.80
2018-09-26T21:48:43.289Z,14.90
2018-09-26T21:51:11.585Z,14.80
2018-09-26T21:53:39.892Z,14.80
2018-09-26T21:56:08.449Z,14.80
2018-09-26T21:58:37.867Z,14.80
2018-09-26T22:01:10.811Z,14.80
2018-09-26T22:03:39.098Z,14.70
2018-09-26T22:06:07.492Z,14.80
2018-09-26T22:08:36.064Z,14.70
2018-09-26T22:11:04.374Z,14.70
2018-09-26T22:13:32.669Z,14.70
2018-09-26T22:16:00.973Z,14.70
2018-09-26T22:18:29.328Z,14.60
2018-09-26T22:20:57.754Z,14.60
2018-09-26T22:23:26.046Z,14.60
2018-09-26T22:25:54.360Z,14.60
2018-09-26T22:28:22.689Z,14.60
2018-09-26T22:30:50.964Z,14.60
2018-09-26T22:33:19.256Z,14.60
2018-09-26T22:35:47.575Z,14.60
2018-09-26T22:38:15.968Z,14.60
2018-09-26T22:40:46.683Z,14.60
2018-09-26T22:43:21.788Z,14.70
2018-09-26T22:45:50.378Z,14.70
2018-09-26T22:48:19.949Z,14.70
2018-09-26T22:50:48.237Z,14.70
2018-09-26T22:53:17.525Z,14.70
2018-09-26T22:55:46.378Z,14.70
2018-09-26T22:58:15.946Z,14.70
2018-09-26T23:00:44.621Z,14.70
2018-09-26T23:03:12.992Z,14.70
2018-09-26T23:05:41.302Z,14.70
2018-09-26T23:08:09.727Z,14.70
2018-09-26T23:10:38.243Z,14.70
2018-09-26T23:13:06.789Z,14.70
2018-09-26T23:15:35.860Z,14.80
2018-09-26T23:18:04.189Z,14.80
2018-09-26T23:20:32.489Z,14.80
2018-09-26T23:23:01.563Z,14.80
2018-09-26T23:25:29.861Z,14.80
2018-09-26T23:27:58.153Z,14.70
2018-09-26T23:30:26.496Z,14.80
2018-09-26T23:32:54.764Z,14.70
2018-09-26T23:35:23.077Z,14.70
2018-09-26T23:37:51.456Z,14.70
2018-09-26T23:40:19.883Z,14.70
2018-09-26T23:42:48.224Z,14.70
2018-09-26T23:45:16.542Z,14.80
2018-09-26T23:47:44.913Z,14.80
2018-09-26T23:50:13.219Z,14.70
2018-09-26T23:52:41.521Z,14.70
2018-09-26T23:55:09.857Z,14.70
2018-09-26T23:57:38.217Z,14.70
